Oasis
DateTemperatureDew Point
10/17 - 03:00 PM89.5°47.0°
10/17 - 02:45 PM90.6°48.5°
10/17 - 02:30 PM90.0°49.3°
10/17 - 02:15 PM89.4°50.8°
10/17 - 02:00 PM88.1°51.3°
10/17 - 01:45 PM86.7°51.8°
10/17 - 01:30 PM85.2°52.4°
10/17 - 01:15 PM84.8°53.3°
10/17 - 01:00 PM83.8°53.4°
10/17 - 12:45 PM82.8°54.1°
10/17 - 12:30 PM81.4°54.3°
10/17 - 12:15 PM80.8°54.5°
10/17 - 12:00 PM80.9°55.4°
10/17 - 11:45 AM80.9°56.4°
10/17 - 11:30 AM80.1°56.3°
10/17 - 11:15 AM79.9°55.8°
10/17 - 11:00 AM80.5°56.7°
10/17 - 10:45 AM80.2°57.8°
10/17 - 10:30 AM78.1°57.3°
10/17 - 10:15 AM75.2°55.5°
10/17 - 10:00 AM72.9°54.5°
10/17 - 09:45 AM70.7°54.1°
10/17 - 09:30 AM69.9°55.4°
10/17 - 09:15 AM69.2°57.0°
10/17 - 09:00 AM66.9°56.6°
10/17 - 08:45 AM62.1°52.5°
10/17 - 08:30 AM58.0°48.3°
10/17 - 08:15 AM56.2°46.5°
10/17 - 08:00 AM54.8°45.4°
10/17 - 07:45 AM53.2°44.0°
10/17 - 07:30 AM51.8°42.8°
10/17 - 07:15 AM50.7°41.8°
10/17 - 07:00 AM50.1°41.1°
10/17 - 06:45 AM50.3°41.2°
10/17 - 06:30 AM50.1°40.9°
10/17 - 06:15 AM50.5°41.1°
10/17 - 06:00 AM51.3°41.7°
10/17 - 05:45 AM51.2°41.5°
10/17 - 05:30 AM50.9°40.9°
10/17 - 05:15 AM51.2°41.0°
10/17 - 05:00 AM51.7°41.4°
10/17 - 04:45 AM52.1°41.9°
10/17 - 04:30 AM50.7°41.0°
10/17 - 04:15 AM49.8°39.9°
10/17 - 04:00 AM49.9°39.7°
10/17 - 03:45 AM50.3°39.9°
10/17 - 03:30 AM50.4°39.8°
10/17 - 03:15 AM50.4°39.6°
10/17 - 03:00 AM50.7°39.6°
10/17 - 02:45 AM51.0°39.8°
10/17 - 02:30 AM51.5°39.9°
10/17 - 02:15 AM51.7°39.8°
10/17 - 02:00 AM52.6°40.3°
10/17 - 01:45 AM53.4°40.7°
10/17 - 01:30 AM54.2°41.2°
10/17 - 01:15 AM54.9°41.4°
10/17 - 01:00 AM55.5°41.3°
10/17 - 12:45 AM55.7°40.7°
10/17 - 12:30 AM56.3°40.5°
10/17 - 12:15 AM57.0°40.6°
10/17 - 12:00 AM58.0°41.5°
10/16 - 11:45 PM58.2°42.1°
10/16 - 11:30 PM58.0°42.8°
10/16 - 11:15 PM57.5°43.1°
10/16 - 11:00 PM57.6°43.7°
10/16 - 10:45 PM58.0°44.2°
10/16 - 10:30 PM59.0°45.0°
10/16 - 10:15 PM59.4°45.0°
10/16 - 10:00 PM60.2°45.6°
10/16 - 09:45 PM60.8°45.9°
10/16 - 09:30 PM62.1°46.4°
10/16 - 09:15 PM63.1°46.5°
10/16 - 09:00 PM63.6°46.0°
10/16 - 08:45 PM63.3°44.6°
10/16 - 08:30 PM62.5°42.6°
10/16 - 08:15 PM62.8°41.6°
10/16 - 08:00 PM64.0°41.4°
10/16 - 07:45 PM65.1°41.0°
10/16 - 07:30 PM66.8°40.9°
10/16 - 07:15 PM68.7°40.0°
10/16 - 07:00 PM70.9°38.6°
10/16 - 06:45 PM73.0°36.9°
10/16 - 06:30 PM75.4°35.2°
10/16 - 06:15 PM78.0°34.6°
10/16 - 06:00 PM80.9°34.9°
10/16 - 05:45 PM83.6°35.6°
10/16 - 05:30 PM86.9°36.7°
10/16 - 05:15 PM89.9°36.5°
10/16 - 05:00 PM93.3°38.6°
10/16 - 04:45 PM94.2°38.3°
10/16 - 04:30 PM94.5°37.4°
10/16 - 04:15 PM94.8°36.3°
10/16 - 04:00 PM95.0°35.9°
10/16 - 03:45 PM95.4°36.3°
10/16 - 03:30 PM95.3°36.8°
10/16 - 03:15 PM94.1°36.0°
10/16 - 03:00 PM94.2°36.3°
10/16 - 02:45 PM94.2°36.6°
10/16 - 02:30 PM94.1°36.6°
10/16 - 02:15 PM93.9°37.6°
10/16 - 02:00 PM93.2°37.6°
10/16 - 01:45 PM93.0°38.1°
10/16 - 01:30 PM92.0°38.4°
10/16 - 01:15 PM92.1°40.8°
10/16 - 01:00 PM90.9°41.6°
10/16 - 12:45 PM89.6°42.8°
10/16 - 12:30 PM88.2°43.6°
10/16 - 12:15 PM87.2°44.3°
10/16 - 12:00 PM86.6°46.0°
10/16 - 11:45 AM86.2°48.2°
10/16 - 11:30 AM84.9°49.1°
10/16 - 11:15 AM83.5°49.3°
10/16 - 11:00 AM83.3°51.0°
10/16 - 10:45 AM82.4°53.0°
10/16 - 10:30 AM80.7°54.9°
10/16 - 10:15 AM76.8°53.7°
10/16 - 10:00 AM74.4°53.4°
10/16 - 09:45 AM72.9°53.4°
10/16 - 09:30 AM71.3°53.4°
10/16 - 09:15 AM70.0°54.2°
10/16 - 09:00 AM66.7°52.6°
10/16 - 08:45 AM61.6°47.6°
10/16 - 08:30 AM58.4°44.2°
10/16 - 08:15 AM55.7°41.4°
10/16 - 08:00 AM52.9°38.3°
10/16 - 07:45 AM51.4°36.1°
10/16 - 07:30 AM50.4°34.9°
10/16 - 07:15 AM50.0°34.3°
10/16 - 07:00 AM49.9°34.1°
10/16 - 06:45 AM50.0°34.3°
10/16 - 06:30 AM51.1°35.3°
10/16 - 06:15 AM51.1°35.7°
10/16 - 06:00 AM50.7°35.6°
10/16 - 05:45 AM50.6°35.8°
10/16 - 05:30 AM50.1°35.6°
10/16 - 05:15 AM49.7°35.3°
10/16 - 05:00 AM49.1°34.3°
10/16 - 04:45 AM49.0°33.7°
10/16 - 04:30 AM50.0°34.2°
10/16 - 04:15 AM51.1°35.1°
10/16 - 04:00 AM52.0°35.8°
10/16 - 03:45 AM52.4°35.9°
10/16 - 03:30 AM52.3°35.6°
10/16 - 03:15 AM52.3°35.8°
10/16 - 03:00 AM52.4°35.9°
10/16 - 02:45 AM52.5°35.8°
10/16 - 02:30 AM52.8°35.8°
10/16 - 02:15 AM53.2°35.9°
10/16 - 02:00 AM53.6°36.2°
10/16 - 01:45 AM54.3°36.7°
10/16 - 01:30 AM54.8°36.7°
10/16 - 01:15 AM54.7°36.5°
10/16 - 01:00 AM54.8°36.5°
10/16 - 12:45 AM55.3°36.8°
10/16 - 12:30 AM55.1°36.6°
10/16 - 12:15 AM54.6°35.8°
10/16 - 12:00 AM54.9°35.8°
10/15 - 11:45 PM54.7°35.5°
10/15 - 11:30 PM55.1°35.9°
10/15 - 11:15 PM55.7°36.1°
10/15 - 11:00 PM56.4°36.6°
10/15 - 10:45 PM57.0°37.1°
10/15 - 10:30 PM57.0°36.5°
10/15 - 10:15 PM57.3°36.1°
10/15 - 10:00 PM57.9°35.8°
10/15 - 09:45 PM58.2°35.0°
10/15 - 09:30 PM58.9°34.6°
10/15 - 09:15 PM60.1°34.6°
10/15 - 09:00 PM61.2°35.1°
10/15 - 08:45 PM62.1°35.6°
10/15 - 08:30 PM62.8°36.5°
10/15 - 08:15 PM62.6°37.1°
10/15 - 08:00 PM62.6°37.4°
10/15 - 07:45 PM63.8°37.9°
10/15 - 07:30 PM64.1°36.9°
10/15 - 07:15 PM64.9°37.0°
10/15 - 07:00 PM66.4°37.6°
10/15 - 06:45 PM67.3°37.7°
10/15 - 06:30 PM69.6°38.9°
10/15 - 06:15 PM72.2°39.6°
10/15 - 06:00 PM74.8°39.7°
10/15 - 05:45 PM77.5°39.4°
10/15 - 05:30 PM79.6°39.4°
10/15 - 05:15 PM81.9°39.2°
10/15 - 05:00 PM83.9°39.8°
10/15 - 04:45 PM84.9°40.2°
10/15 - 04:30 PM85.9°40.4°
10/15 - 04:15 PM86.4°40.2°
10/15 - 04:00 PM87.5°41.0°
10/15 - 03:45 PM87.9°41.6°
10/15 - 03:30 PM88.3°41.9°
10/15 - 03:15 PM88.3°41.2°